Terminal Aerodrome Forecast
Issued by NWS Raleigh/Durham, NC

Home | Current Version | Previous Version | Text Only | Print | Product List | Glossary On
Versions: 1 2 3 4 5 6 7 8 9 10 11 12 13 14 15 16 17 18 19 20 21 22 23 24 25 26 27 28 29 30 31 32 33 34 35 36 37 38 39
000
FTUS42 KRAH 140930 AAA
TAFGSO
TAF AMD
KGSO 140930Z 1410/1506 01006KT P6SM SKC
     FM141100 04006KT P6SM SCT120
     FM142000 15005KT P6SM OVC060
     FM150400 12005KT P6SM SCT025 OVC040
      TEMPO 1504/1506 5SM -SN=

USA.gov is the U.S. government's official web portal to all federal, state and local government web resources and services.